• Join FlightAware (Why Join?)
  • Login
  • US Flag 
12:41AM EST


 

Airport Tracker/Info


-or-


 

Live Flight TrackerFlight Track Log ✈ ASQ5311 ✈ 22-Apr-2014 ✈ KLGA - KBGR

Flight Track Log - Related Links

Times and Time Zones

All times are in EDT time to prevent confusion due to time zone crossing. See the ASQ5311 flight status page for this flight to view local times or setup timezone preferences in your user account.

Time Position Orientation Groundspeed Altitude Reporting Facility
EDT Latitude Longitude Course Direction KTS MPH feet Rate Location/Type
10:13PM 40.8111 -73.8919 10° North 206 237 1,600  Level Boston Center
10:14PM 40.8639 -73.8800 10° North 207 238 3,400 2,160 Climbing Boston Center
10:15PM 40.9367 -73.8617 11° North 248 285 6,100 2,880 Climbing Boston Center
10:16PM 41.0192 -73.8147 23° Northeast 290 334 9,300 2,640 Climbing Boston Center
10:17PM 41.1006 -73.8175 359° North 293 337 11,500 1,800 Climbing Boston Center
10:18PM 41.1917 -73.8072 North 345 397 13,000 1,620 Climbing Boston Center
10:19PM 41.2667 -73.6869 50° Northeast 393 452 14,800 1,860 Climbing Boston Center
10:20PM 41.3361 -73.5667 52° Northeast 407 468 16,800 1,980 Climbing Boston Center
10:21PM 41.4072 -73.4450 52° Northeast 415 478 18,900 1,800 Climbing Boston Center
10:22PM 41.5003 -73.3344 42° Northeast 432 497 20,500 1,620 Climbing Boston Center
10:23PM 41.5908 -73.2164 44° Northeast 445 512 22,200 1,620 Climbing Boston Center
10:24PM 41.6839 -73.1003 43° Northeast 454 522 23,800 1,500 Climbing Boston Center
10:26PM 41.7761 -72.9825 44° Northeast 457 526 25,300 1,320 Climbing Boston Center
10:27PM 41.8711 -72.8628 43° Northeast 467 537 26,500 1,080 Climbing Boston Center
10:28PM 41.9678 -72.7386 44° Northeast 478 550 27,500 960 Climbing Boston Center
10:29PM 42.0664 -72.6108 44° Northeast 493 567 28,500 960 Climbing Boston Center
10:30PM 42.1667 -72.4822 44° Northeast 501 577 29,500 960 Climbing Boston Center
10:31PM 42.2675 -72.3500 44° Northeast 509 586 30,500 720 Climbing Boston Center
10:32PM 42.3697 -72.2175 44° Northeast 512 589 31,000 240 Climbing Boston Center
10:33PM 42.4728 -72.0786 45° Northeast 525 604 31,000  Level Boston Center
10:34PM 42.5789 -71.9389 44° Northeast 533 613 31,000  Level Boston Center
10:35PM 42.7072 -71.7694 44° Northeast 536 617 31,000  Level Boston Center
10:36PM 42.8144 -71.6264 44° Northeast 539 620 31,000  Level Boston Center
10:37PM 42.9175 -71.4889 44° Northeast 540 621 31,000  Level Boston Center
10:38PM 43.0239 -71.3436 45° Northeast 540 621 31,000  Level Boston Center
10:39PM 43.1339 -71.1953 45° Northeast 538 619 31,000  Level Boston Center
10:40PM 43.2383 -71.0547 44° Northeast 541 623 31,000 -60 Level Boston Center
10:41PM 43.3442 -70.9097 45° Northeast 539 620 30,900 -600 Descending Boston Center
10:42PM 43.4556 -70.7572 45° Northeast 530 610 29,800 -1,080 Descending Boston Center
10:43PM 43.5536 -70.6217 45° Northeast 502 578 28,800 -1,200 Descending Boston Center
10:44PM 43.6494 -70.4881 45° Northeast 490 564 27,400 -1,440 Descending Boston Center
10:45PM 43.7469 -70.3511 45° Northeast 495 570 25,900 -1,500 Descending Boston Center
10:46PM 43.8469 -70.2108 45° Northeast 504 580 24,400 -1,500 Descending Boston Center
10:47PM 43.9447 -70.0747 45° Northeast 503 579 22,900 -1,740 Descending Boston Center
10:48PM 44.0397 -69.9383 46° Northeast 496 571 20,900 -2,340 Descending Boston Center
10:49PM 44.1364 -69.8039 45° Northeast 459 528 18,200 -2,880 Descending Boston Center
10:50PM 44.2244 -69.6769 46° Northeast 427 491 15,100 -2,580 Descending Boston Center
10:51PM 44.2897 -69.5814 46° Northeast 403 464 13,000 -2,100 Descending Boston Center
10:52PM 44.3533 -69.4594 54° Northeast 390 449 10,900 -1,680 Descending Boston Center
10:53PM 44.4333 -69.3833 34° Northeast 351 404 9,600 -1,560 Descending Boston Center
10:54PM 44.5078 -69.3117 34° Northeast 333 383 7,800 -2,220 Descending Boston Center
10:55PM 44.5914 -69.2306 35° Northeast 312 359 5,200 -1,740 Descending Boston Center
10:56PM 44.6575 -69.1656 35° Northeast 299 344 4,300 -840 Descending Boston Center
10:57PM 44.7206 -69.1028 35° Northeast 285 328 3,600 -660 Descending Boston Center
10:58PM 44.7842 -69.0389 35° Northeast 284 327 3,000 -600 Descending Boston Center
10:59PM 44.8356 -68.9686 44° Northeast 267 307 2,500 -840 Descending Boston Center
11:00PM 44.8542 -68.9011 69° East 215 247 1,400 -960 Descending Boston Center
11:01PM 44.8306 -68.8622 131° Southeast 158 182 600 -600 Descending Boston Center
11:02PM 44.8067 -68.8256 133° Southeast 150 173 300 -300 Descending Boston Center
11:04PM 44.8000 -68.8167 50° Northeast  Level FlightAware Approximate